Time;durP1;ratioP1;P1;durP2;ratioP2;P2;SDS_P1;SDS_P2;PMS_P1;PMS_P2;Temp;Humidity;BMP_temperature;BMP_pressure;BME280_temperature;BME280_humidity;BME280_pressure;Samples;Min_cycle;Max_cycle;Signal;HPM_P1;HPM_P2
2022/09/11 00:00:48;;;;;;;1.88;0.70;;;16.40;99.90;;;;;;5081734;28;20032;-83
2022/09/11 00:03:15;;;;;;;0.82;0.75;;;16.40;99.90;;;;;;5081205;28;20032;-83
2022/09/11 00:05:42;;;;;;;2.28;0.70;;;16.40;99.90;;;;;;5082185;28;20017;-83
2022/09/11 00:08:10;;;;;;;2.30;0.90;;;16.40;99.90;;;;;;5072699;28;20028;-84
2022/09/11 00:10:39;;;;;;;3.40;0.77;;;16.30;99.90;;;;;;5092035;28;20024;-80
2022/09/11 00:13:06;;;;;;;3.13;0.75;;;16.30;99.90;;;;;;5090778;28;20028;-82
2022/09/11 00:15:36;;;;;;;1.60;0.70;;;16.30;99.90;;;;;;5069440;28;20036;-83
2022/09/11 00:18:03;;;;;;;1.08;0.80;;;16.30;99.90;;;;;;5080305;28;20048;-85
2022/09/11 00:20:29;;;;;;;1.50;0.85;;;16.30;99.90;;;;;;5070992;28;20008;-83
2022/09/11 00:22:55;;;;;;;2.83;1.17;;;16.30;99.90;;;;;;5073795;28;20040;-82
2022/09/11 00:25:20;;;;;;;4.57;1.38;;;16.20;99.90;;;;;;5092756;28;20040;-81
2022/09/11 00:27:47;;;;;;;1.35;0.98;;;16.20;99.90;;;;;;5092295;28;20035;-81
2022/09/11 00:30:13;;;;;;;1.88;0.90;;;16.20;99.90;;;;;;5091978;28;20024;-83
2022/09/11 00:32:39;;;;;;;2.42;1.00;;;16.20;99.90;;;;;;5071479;28;20031;-82
2022/09/11 00:35:05;;;;;;;1.15;1.08;;;16.20;99.90;;;;;;5082212;28;20021;-82
2022/09/11 00:37:31;;;;;;;3.67;1.20;;;16.20;99.90;;;;;;5065501;28;20032;-82
2022/09/11 00:39:56;;;;;;;4.20;1.20;;;16.30;99.90;;;;;;5064697;28;20021;-83
2022/09/11 00:42:24;;;;;;;0.90;0.90;;;16.20;99.90;;;;;;5090946;28;20038;-85
2022/09/11 00:44:49;;;;;;;1.27;0.93;;;16.20;99.90;;;;;;5068636;28;20628;-82
2022/09/11 00:47:17;;;;;;;2.60;1.33;;;16.20;99.90;;;;;;5082287;28;20024;-83
2022/09/11 00:49:53;;;;;;;2.53;1.20;;;16.20;99.90;;;;;;5082041;28;20017;-83
2022/09/11 00:52:29;;;;;;;1.50;1.00;;;16.20;99.90;;;;;;5049548;28;20028;-83
2022/09/11 00:55:09;;;;;;;4.18;1.27;;;16.10;99.90;;;;;;5066053;28;20049;-83
2022/09/11 00:57:44;;;;;;;1.35;1.13;;;16.20;99.90;;;;;;5083889;28;20039;-82
2022/09/11 01:00:12;;;;;;;;;;;16.20;99.90;;;;;;5085937;28;20059;-84
2022/09/11 01:02:41;;;;;;;3.22;1.48;;;16.20;99.90;;;;;;5084838;28;20315;-83
2022/09/11 01:05:09;;;;;;;2.60;1.05;;;16.20;99.90;;;;;;5089139;28;20045;-83
2022/09/11 01:07:35;;;;;;;1.35;1.10;;;16.20;99.90;;;;;;5097522;28;20088;-85
2022/09/11 01:10:04;;;;;;;5.22;1.20;;;16.30;99.90;;;;;;5093184;28;20016;-85
2022/09/11 01:12:40;;;;;;;4.90;1.13;;;16.20;99.90;;;;;;5098243;28;20033;-81
2022/09/11 01:15:12;;;;;;;4.82;1.48;;;16.30;99.90;;;;;;5080010;28;20105;-82
2022/09/11 01:17:59;;;;;;;0.60;0.60;;;16.20;99.90;;;;;;5057334;28;20052;-82
2022/09/11 01:20:43;;;;;;;2.03;0.98;;;16.30;99.90;;;;;;5083725;28;20074;-80
2022/09/11 01:23:12;;;;;;;2.25;1.15;;;16.30;99.90;;;;;;5062906;28;20028;-83
2022/09/11 01:25:50;;;;;;;3.72;0.90;;;16.30;99.90;;;;;;5081100;28;20020;-84
2022/09/11 01:28:24;;;;;;;2.00;0.98;;;16.30;99.90;;;;;;5062815;28;20475;-81
2022/09/11 01:30:55;;;;;;;1.52;0.90;;;16.40;99.90;;;;;;5083399;28;20035;-82
2022/09/11 01:33:25;;;;;;;3.33;0.88;;;16.50;99.90;;;;;;5084888;28;20511;-84
2022/09/11 01:36:09;;;;;;;1.92;1.00;;;16.40;99.90;;;;;;5090612;28;20023;-82
2022/09/11 01:38:45;;;;;;;1.92;0.90;;;16.40;99.90;;;;;;5065326;28;20060;-83
2022/09/11 01:41:17;;;;;;;4.28;1.10;;;16.40;99.90;;;;;;5068118;28;20024;-82
2022/09/11 01:43:55;;;;;;;1.15;0.90;;;16.40;99.90;;;;;;5073337;28;20024;-83
2022/09/11 01:46:24;;;;;;;1.30;0.77;;;16.40;99.90;;;;;;5072261;28;20024;-84
2022/09/11 01:49:30;;;;;;;1.63;0.98;;;16.40;99.90;;;;;;5063654;28;20025;-82
2022/09/11 01:52:02;;;;;;;1.13;0.77;;;16.40;99.90;;;;;;5028708;28;20051;-84
2022/09/11 01:54:33;;;;;;;2.17;0.88;;;16.40;99.90;;;;;;5060983;28;20037;-81
2022/09/11 01:57:15;;;;;;;1.17;1.00;;;16.40;99.90;;;;;;5080040;28;20029;-83
2022/09/11 01:59:46;;;;;;;3.40;1.20;;;16.40;99.90;;;;;;5062007;28;20039;-82
2022/09/11 02:02:20;;;;;;;2.80;0.90;;;16.40;99.90;;;;;;5080807;28;20082;-84
2022/09/11 02:04:55;;;;;;;1.15;0.85;;;16.40;99.90;;;;;;5070144;28;20047;-82
2022/09/11 02:07:32;;;;;;;1.55;1.08;;;16.40;99.90;;;;;;5093409;28;20024;-83
2022/09/11 02:10:07;;;;;;;2.95;1.25;;;16.40;99.90;;;;;;5097030;28;20108;-84
2022/09/11 02:12:45;;;;;;;1.52;1.00;;;16.40;99.90;;;;;;5080098;28;20048;-83
2022/09/11 02:15:14;;;;;;;1.92;0.93;;;16.40;99.90;;;;;;5062266;28;20025;-81
2022/09/11 02:18:18;;;;;;;2.25;1.00;;;16.40;99.90;;;;;;5062663;28;20025;-83
2022/09/11 02:20:46;;;;;;;2.13;1.20;;;16.50;99.90;;;;;;5012339;28;20037;-84
2022/09/11 02:23:14;;;;;;;1.70;1.20;;;16.50;99.90;;;;;;5046549;28;20048;-85
2022/09/11 02:25:40;;;;;;;2.55;1.10;;;16.50;99.90;;;;;;5084369;28;20088;-85
2022/09/11 02:28:06;;;;;;;3.20;1.13;;;16.50;99.90;;;;;;5094366;28;20044;-84
2022/09/11 02:30:32;;;;;;;2.22;1.27;;;16.50;99.90;;;;;;5094870;28;20012;-82
2022/09/11 02:32:58;;;;;;;2.05;1.42;;;16.50;99.90;;;;;;5098665;28;20081;-83
2022/09/11 02:35:30;;;;;;;2.95;1.45;;;16.50;99.90;;;;;;5097797;28;20063;-83
2022/09/11 02:38:23;;;;;;;3.58;1.20;;;16.50;99.90;;;;;;5064164;28;20037;-85
2022/09/11 02:40:54;;;;;;;2.95;1.13;;;16.60;99.90;;;;;;5073048;28;20056;-82
2022/09/11 02:43:38;;;;;;;2.80;1.30;;;16.50;99.90;;;;;;5077505;28;20024;-82
2022/09/11 02:46:47;;;;;;;3.90;1.45;;;16.50;99.90;;;;;;5075243;28;20032;-83
2022/09/11 02:49:58;;;;;;;2.35;1.27;;;16.50;99.90;;;;;;4993180;28;20045;-80
2022/09/11 02:52:39;;;;;;;1.75;1.10;;;16.60;99.90;;;;;;5062719;28;20051;-82
2022/09/11 02:55:24;;;;;;;1.55;1.20;;;16.50;99.90;;;;;;5067193;28;20036;-82
2022/09/11 02:58:04;;;;;;;1.98;1.17;;;16.50;99.90;;;;;;5070789;28;20037;-83
2022/09/11 03:00:31;;;;;;;2.22;1.25;;;16.50;99.90;;;;;;5071425;28;20021;-82
2022/09/11 03:02:57;;;;;;;3.92;1.40;;;16.50;99.90;;;;;;5073911;28;20087;-83
2022/09/11 03:05:23;;;;;;;1.52;1.17;;;16.40;99.90;;;;;;5056340;28;20037;-84
2022/09/11 03:07:49;;;;;;;3.72;1.20;;;16.50;99.90;;;;;;5071131;28;20016;-83
2022/09/11 03:10:15;;;;;;;1.63;0.90;;;16.50;99.90;;;;;;5085618;28;20028;-80
2022/09/11 03:12:41;;;;;;;4.68;1.25;;;16.50;99.90;;;;;;5085216;28;20029;-83
2022/09/11 03:15:09;;;;;;;2.42;1.02;;;16.50;99.90;;;;;;5053350;28;20036;-83
2022/09/11 03:17:35;;;;;;;1.45;1.08;;;16.60;99.90;;;;;;5070641;28;20025;-83
2022/09/11 03:20:03;;;;;;;3.10;1.00;;;16.50;99.90;;;;;;5077724;28;20019;-81
2022/09/11 03:22:29;;;;;;;1.13;1.05;;;16.50;99.90;;;;;;5077997;28;20111;-82
2022/09/11 03:24:57;;;;;;;7.60;1.50;;;16.50;99.90;;;;;;5078207;28;20082;-83
2022/09/11 03:27:25;;;;;;;3.65;1.30;;;16.50;99.90;;;;;;5097320;28;20039;-84
2022/09/11 03:29:50;;;;;;;3.90;1.08;;;16.50;99.90;;;;;;5073361;28;20024;-83
2022/09/11 03:32:17;;;;;;;2.17;1.17;;;16.50;99.90;;;;;;5066282;28;20090;-82
2022/09/11 03:34:42;;;;;;;2.58;1.13;;;16.50;99.90;;;;;;5084291;28;20017;-82
2022/09/11 03:37:08;;;;;;;2.55;1.00;;;16.60;99.90;;;;;;5072376;28;20024;-82
2022/09/11 03:39:34;;;;;;;5.20;1.13;;;16.50;99.90;;;;;;5076942;28;20037;-83
2022/09/11 03:42:01;;;;;;;2.47;1.08;;;16.50;99.90;;;;;;5063417;28;20036;-84
2022/09/11 03:44:27;;;;;;;1.45;1.23;;;16.50;99.90;;;;;;5075805;28;20040;-82
2022/09/11 03:46:53;;;;;;;2.85;1.23;;;16.50;99.90;;;;;;5072987;28;20017;-81
2022/09/11 03:49:19;;;;;;;1.60;1.02;;;16.40;99.90;;;;;;5076535;28;20296;-83
2022/09/11 03:51:46;;;;;;;3.22;1.20;;;16.40;99.90;;;;;;5077129;28;20013;-83
2022/09/11 03:54:14;;;;;;;5.03;1.40;;;16.40;99.90;;;;;;5077678;28;20036;-83
2022/09/11 03:56:41;;;;;;;2.97;1.38;;;16.40;99.90;;;;;;5076858;28;20020;-83
2022/09/11 03:59:08;;;;;;;3.28;1.25;;;16.40;99.90;;;;;;5060226;28;20036;-82
2022/09/11 04:01:35;;;;;;;3.08;1.15;;;16.30;99.90;;;;;;5079881;28;20028;-83
2022/09/11 04:04:03;;;;;;;1.83;1.08;;;16.30;99.90;;;;;;5075161;28;20040;-83
2022/09/11 04:06:34;;;;;;;1.52;1.20;;;16.30;99.90;;;;;;5073573;28;20021;-82
2022/09/11 04:09:02;;;;;;;5.38;1.20;;;16.40;99.90;;;;;;5073541;28;20084;-84
2022/09/11 04:11:29;;;;;;;2.17;1.02;;;16.30;99.90;;;;;;5076555;28;20020;-80
2022/09/11 04:13:55;;;;;;;3.65;1.40;;;16.30;99.90;;;;;;5094297;28;20033;-82
2022/09/11 04:16:24;;;;;;;2.63;1.10;;;16.30;99.90;;;;;;5076308;28;20031;-81
2022/09/11 04:18:53;;;;;;;1.92;0.80;;;16.30;99.90;;;;;;5076481;28;20098;-84
2022/09/11 04:21:19;;;;;;;3.65;0.93;;;16.30;99.90;;;;;;5094923;28;20025;-81
2022/09/11 04:23:59;;;;;;;2.95;1.00;;;16.30;99.90;;;;;;5077073;28;20103;-84
2022/09/11 04:26:31;;;;;;;1.70;0.90;;;16.30;99.90;;;;;;5075738;28;20032;-83
2022/09/11 04:29:04;;;;;;;3.85;1.30;;;16.30;99.90;;;;;;5063951;28;20025;-84
2022/09/11 04:31:30;;;;;;;3.72;0.98;;;16.40;99.90;;;;;;5062681;28;20043;-84
2022/09/11 04:33:56;;;;;;;2.40;1.20;;;16.30;99.90;;;;;;5065209;28;20420;-82
2022/09/11 04:36:23;;;;;;;1.92;1.40;;;16.40;99.90;;;;;;5064749;28;20028;-83
2022/09/11 04:38:54;;;;;;;2.67;1.30;;;16.30;99.90;;;;;;5081532;28;20025;-84
2022/09/11 04:41:21;;;;;;;3.70;1.35;;;16.30;99.90;;;;;;5063853;28;20031;-83
2022/09/11 04:43:48;;;;;;;2.42;1.45;;;16.40;99.90;;;;;;5081980;28;20025;-81
2022/09/11 04:46:16;;;;;;;2.45;1.63;;;16.40;99.90;;;;;;5067505;28;20025;-80
2022/09/11 04:48:48;;;;;;;3.67;1.77;;;16.40;99.90;;;;;;5064612;28;20044;-83
2022/09/11 04:51:18;;;;;;;;;;;16.50;99.90;;;;;;5078026;28;20017;-82
2022/09/11 04:53:44;;;;;;;5.38;1.80;;;16.50;99.90;;;;;;5062060;28;19927;-82
2022/09/11 04:56:13;;;;;;;2.67;1.83;;;16.50;99.90;;;;;;5066975;28;20013;-83
2022/09/11 04:58:44;;;;;;;6.88;2.42;;;16.50;99.90;;;;;;5095199;28;20047;-82
2022/09/11 05:01:13;;;;;;;5.18;1.88;;;16.60;99.90;;;;;;5081433;28;20021;-85
2022/09/11 05:03:42;;;;;;;5.72;1.80;;;16.60;99.90;;;;;;5063779;28;20032;-83
2022/09/11 05:06:11;;;;;;;4.10;1.80;;;16.60;99.90;;;;;;5080722;28;20037;-83
2022/09/11 05:08:37;;;;;;;3.20;1.40;;;16.60;99.90;;;;;;5078448;28;20062;-82
2022/09/11 05:11:05;;;;;;;2.65;1.63;;;16.60;99.90;;;;;;5062476;28;20016;-85
2022/09/11 05:13:32;;;;;;;3.97;1.75;;;16.60;99.90;;;;;;5072319;28;20024;-80
2022/09/11 05:16:10;;;;;;;1.77;1.50;;;16.70;99.90;;;;;;5077031;28;20040;-83
2022/09/11 05:18:37;;;;;;;4.15;1.73;;;16.70;99.90;;;;;;5080098;22;20117;-85
2022/09/11 05:21:11;;;;;;;3.75;1.63;;;16.70;99.90;;;;;;5052715;28;20021;-85
2022/09/11 05:23:38;;;;;;;2.72;1.85;;;16.80;99.90;;;;;;5052560;28;20028;-85
2022/09/11 05:26:06;;;;;;;5.15;1.83;;;16.80;99.90;;;;;;5055203;28;20120;-85
2022/09/11 05:28:33;;;;;;;2.65;1.77;;;16.80;99.90;;;;;;5038139;28;20032;-86
2022/09/11 05:30:59;;;;;;;5.40;1.70;;;16.90;99.90;;;;;;5054556;28;20100;-87
2022/09/11 05:33:27;;;;;;;3.15;1.38;;;16.90;99.90;;;;;;5052387;28;20025;-83
2022/09/11 05:35:54;;;;;;;1.58;1.30;;;17.00;99.90;;;;;;5051285;28;20029;-85
2022/09/11 05:38:25;;;;;;;1.50;1.30;;;17.10;99.90;;;;;;5051677;28;20029;-85
2022/09/11 05:40:51;;;;;;;1.63;1.13;;;17.10;99.90;;;;;;5051513;28;20062;-85
2022/09/11 05:43:21;;;;;;;1.73;1.02;;;17.20;99.90;;;;;;5039956;28;20064;-83
2022/09/11 05:45:57;;;;;;;2.40;0.90;;;17.20;99.90;;;;;;5056576;28;20101;-84
2022/09/11 05:48:30;;;;;;;1.02;0.95;;;17.30;99.90;;;;;;5052812;28;20029;-83
2022/09/11 05:51:09;;;;;;;1.88;1.00;;;17.30;99.90;;;;;;5047407;28;20036;-81
2022/09/11 05:53:36;;;;;;;2.83;1.20;;;17.30;99.90;;;;;;5055256;28;20029;-84
2022/09/11 05:56:09;;;;;;;1.35;0.90;;;17.30;99.90;;;;;;5048600;28;20075;-84
2022/09/11 05:58:36;;;;;;;1.35;1.08;;;17.40;99.90;;;;;;5043795;28;20028;-83
2022/09/11 06:01:14;;;;;;;2.45;0.80;;;17.30;99.90;;;;;;5052243;28;20048;-86
2022/09/11 06:03:43;;;;;;;1.42;1.00;;;17.30;99.90;;;;;;5036426;28;20025;-86
2022/09/11 06:06:11;;;;;;;4.68;1.10;;;17.30;99.90;;;;;;5038454;28;20036;-83
2022/09/11 06:08:39;;;;;;;4.00;1.00;;;17.40;99.90;;;;;;5036357;28;20030;-87
2022/09/11 06:11:06;;;;;;;1.92;1.10;;;17.40;99.90;;;;;;5051810;28;20075;-88
2022/09/11 06:13:39;;;;;;;2.20;1.10;;;17.50;99.90;;;;;;5031758;28;20040;-90
2022/09/11 06:16:15;;;;;;;2.88;1.40;;;17.50;99.90;;;;;;5027971;28;20021;-85
2022/09/11 06:18:41;;;;;;;0.98;0.95;;;17.50;99.90;;;;;;5029233;28;20072;-84
2022/09/11 06:21:13;;;;;;;3.13;1.20;;;17.50;99.90;;;;;;5012642;28;20030;-87
2022/09/11 06:23:50;;;;;;;2.53;1.20;;;17.60;99.90;;;;;;5026877;28;20093;-87
2022/09/11 06:26:22;;;;;;;2.28;1.17;;;17.50;99.90;;;;;;5027123;28;20044;-87
2022/09/11 06:28:50;;;;;;;1.95;1.15;;;17.50;99.90;;;;;;5028473;28;20106;-88
2022/09/11 06:31:25;;;;;;;2.50;1.10;;;17.50;99.90;;;;;;5028114;28;20029;-85
2022/09/11 06:33:53;;;;;;;6.15;1.20;;;17.60;99.90;;;;;;5027383;28;20029;-86
2022/09/11 06:36:26;;;;;;;3.55;1.30;;;17.60;99.90;;;;;;5034469;28;20040;-85
2022/09/11 06:38:55;;;;;;;2.88;1.33;;;17.60;99.90;;;;;;5045043;28;20025;-84
2022/09/11 06:41:24;;;;;;;4.40;1.33;;;17.60;99.90;;;;;;5054376;28;20021;-83
2022/09/11 06:43:52;;;;;;;3.33;1.20;;;17.60;99.90;;;;;;5059431;28;20049;-84
2022/09/11 06:46:23;;;;;;;2.05;1.50;;;17.50;99.90;;;;;;5035479;28;20104;-85
2022/09/11 06:48:53;;;;;;;3.22;1.20;;;17.60;99.90;;;;;;5034259;28;20024;-87
2022/09/11 06:51:23;;;;;;;2.85;1.20;;;17.60;99.90;;;;;;5067208;28;20029;-87
2022/09/11 06:54:01;;;;;;;3.28;1.30;;;17.70;99.90;;;;;;5067327;28;20460;-87
2022/09/11 06:56:31;;;;;;;2.53;1.20;;;17.70;99.90;;;;;;5066999;28;20024;-83
2022/09/11 06:58:59;;;;;;;2.25;1.50;;;17.70;99.90;;;;;;5067381;28;20037;-87
2022/09/11 07:01:27;;;;;;;1.67;1.10;;;17.70;99.90;;;;;;5068460;28;20013;-85
2022/09/11 07:03:57;;;;;;;3.92;1.95;;;17.40;99.90;;;;;;5065193;28;20027;-86
2022/09/11 07:06:26;;;;;;;1.77;1.25;;;17.40;99.90;;;;;;5084085;28;20033;-86
2022/09/11 07:09:00;;;;;;;1.63;1.20;;;17.40;99.90;;;;;;5064880;28;20009;-86
2022/09/11 07:11:33;;;;;;;2.58;1.30;;;17.50;99.90;;;;;;5065639;28;20044;-86
2022/09/11 07:14:01;;;;;;;2.65;1.52;;;17.40;99.90;;;;;;5073094;28;20032;-86
2022/09/11 07:16:27;;;;;;;4.57;1.40;;;17.50;99.90;;;;;;5059183;28;20030;-86
2022/09/11 07:18:54;;;;;;;3.72;1.60;;;17.30;99.90;;;;;;5056230;28;20032;-85
2022/09/11 07:21:24;;;;;;;4.50;1.38;;;17.40;99.90;;;;;;5056624;28;20029;-86
2022/09/11 07:23:58;;;;;;;2.10;1.35;;;17.60;99.90;;;;;;5073785;28;20081;-87
2022/09/11 07:26:28;;;;;;;4.72;1.60;;;17.70;99.90;;;;;;5055243;28;20032;-86
2022/09/11 07:28:59;;;;;;;2.97;1.27;;;17.70;99.90;;;;;;5053834;28;20037;-87
2022/09/11 07:31:28;;;;;;;4.07;1.40;;;17.80;99.90;;;;;;5039173;28;20053;-87
2022/09/11 07:33:55;;;;;;;3.03;1.45;;;17.80;99.90;;;;;;5024415;28;20020;-87
2022/09/11 07:36:27;;;;;;;3.50;1.42;;;17.80;99.90;;;;;;5054498;28;20025;-87
2022/09/11 07:38:54;;;;;;;1.67;1.27;;;17.80;99.90;;;;;;5049649;28;20040;-87
2022/09/11 07:41:23;;;;;;;3.75;1.42;;;17.80;99.90;;;;;;5051551;28;20033;-86
2022/09/11 07:43:59;;;;;;;3.00;1.40;;;17.90;99.90;;;;;;5050806;28;20029;-88
2022/09/11 07:46:27;;;;;;;2.55;1.48;;;18.00;99.90;;;;;;5050895;28;20028;-89
2022/09/11 07:48:54;;;;;;;3.10;1.50;;;18.20;99.90;;;;;;5033176;28;20071;-87
2022/09/11 07:51:20;;;;;;;2.53;1.30;;;18.30;99.90;;;;;;5047671;28;20025;-86
2022/09/11 07:53:52;;;;;;;3.63;1.80;;;18.40;99.90;;;;;;5051374;28;20021;-87
2022/09/11 07:56:22;;;;;;;6.07;1.58;;;18.50;99.90;;;;;;5037519;28;20041;-88
2022/09/11 07:58:51;;;;;;;3.35;1.27;;;18.80;99.90;;;;;;5038886;28;20056;-87
2022/09/11 08:01:25;;;;;;;2.78;1.40;;;19.00;99.90;;;;;;5041254;28;20048;-85
2022/09/11 08:03:59;;;;;;;3.17;1.38;;;19.10;99.90;;;;;;5057922;28;20124;-86
2022/09/11 08:06:28;;;;;;;3.03;1.67;;;19.30;99.90;;;;;;5058550;28;20093;-85
2022/09/11 08:08:59;;;;;;;2.83;1.15;;;19.30;99.90;;;;;;5074140;28;20037;-85
2022/09/11 08:11:26;;;;;;;3.72;1.42;;;19.50;99.90;;;;;;5074675;28;20060;-86
2022/09/11 08:13:54;;;;;;;4.97;1.20;;;19.60;99.90;;;;;;5074754;28;20025;-85
2022/09/11 08:16:24;;;;;;;1.60;1.00;;;19.80;99.90;;;;;;5057902;28;20032;-86
2022/09/11 08:18:53;;;;;;;5.57;1.52;;;20.10;99.90;;;;;;5050600;28;20065;-82
2022/09/11 08:21:21;;;;;;;3.13;1.33;;;20.30;99.90;;;;;;5049184;28;20066;-87
2022/09/11 08:23:47;;;;;;;1.85;1.13;;;20.30;99.90;;;;;;5047837;28;20032;-84
2022/09/11 08:26:23;;;;;;;2.67;1.00;;;20.70;99.90;;;;;;5045985;28;20070;-82
2022/09/11 08:28:54;;;;;;;1.45;1.05;;;21.10;99.90;;;;;;5052621;28;20028;-85
2022/09/11 08:31:27;;;;;;;8.65;1.40;;;21.20;99.90;;;;;;5053469;28;20033;-84
2022/09/11 08:33:56;;;;;;;4.88;1.27;;;21.30;99.90;;;;;;5053798;28;20038;-85
2022/09/11 08:36:22;;;;;;;2.00;1.30;;;21.20;99.90;;;;;;5057907;28;20040;-84
2022/09/11 08:38:51;;;;;;;1.25;1.02;;;21.20;99.90;;;;;;5053840;28;20036;-84
2022/09/11 08:41:27;;;;;;;1.33;0.80;;;21.10;99.90;;;;;;5039981;28;20048;-84
2022/09/11 08:43:58;;;;;;;3.70;1.15;;;21.10;99.90;;;;;;5055039;28;20055;-86
2022/09/11 08:46:29;;;;;;;3.75;1.33;;;21.10;99.90;;;;;;5056658;28;20033;-83
2022/09/11 08:49:09;;;;;;;1.27;1.10;;;21.00;99.90;;;;;;5055143;28;20028;-85
2022/09/11 08:51:36;;;;;;;1.65;1.08;;;21.00;99.90;;;;;;5049108;28;20053;-84
2022/09/11 08:54:03;;;;;;;1.75;0.95;;;20.90;99.90;;;;;;5057438;28;20394;-81
2022/09/11 08:56:35;;;;;;;1.52;1.00;;;20.90;99.90;;;;;;5056130;28;20040;-85
2022/09/11 08:59:20;;;;;;;2.60;1.30;;;20.90;99.90;;;;;;5040240;28;20037;-85
2022/09/11 09:02:00;;;;;;;2.53;1.10;;;21.10;99.90;;;;;;5069809;28;20033;-83
2022/09/11 09:04:31;;;;;;;2.75;0.95;;;20.90;99.90;;;;;;5043532;28;20040;-87
2022/09/11 09:07:36;;;;;;;3.15;1.27;;;20.90;99.90;;;;;;5053267;28;20036;-85
2022/09/11 09:10:32;;;;;;;3.20;1.00;;;21.00;99.90;;;;;;5045277;28;20041;-86
2022/09/11 09:13:46;;;;;;;1.98;0.90;;;21.30;99.90;;;;;;5037294;28;20029;-85
2022/09/11 09:16:50;;;;;;;1.67;1.02;;;21.30;99.90;;;;;;4976678;28;20038;-84
2022/09/11 09:19:45;;;;;;;1.73;1.20;;;21.10;99.90;;;;;;5008252;28;1167050;-83
2022/09/11 09:22:23;;;;;;;2.72;1.08;;;21.10;99.90;;;;;;5073514;28;20033;-83
2022/09/11 09:24:53;;;;;;;1.33;0.90;;;21.20;99.90;;;;;;5050388;28;20029;-84
2022/09/11 09:27:30;;;;;;;2.40;1.30;;;21.20;99.90;;;;;;5051299;28;20201;-85
2022/09/11 09:29:59;;;;;;;1.75;1.20;;;21.40;99.90;;;;;;5075086;28;20021;-83
2022/09/11 09:32:42;;;;;;;3.75;1.00;;;22.20;99.90;;;;;;5052066;28;20040;-87
2022/09/11 09:35:21;;;;;;;1.42;0.95;;;22.70;99.90;;;;;;5051242;28;20029;-82
2022/09/11 09:37:48;;;;;;;2.85;1.15;;;23.90;99.90;;;;;;5074051;28;20128;-83
2022/09/11 09:40:17;;;;;;;4.38;0.95;;;25.30;99.90;;;;;;5075693;28;20029;-84
2022/09/11 09:42:48;;;;;;;3.05;0.90;;;25.30;99.90;;;;;;5046832;28;20085;-85
2022/09/11 09:45:42;;;;;;;4.13;1.00;;;24.70;99.90;;;;;;5073361;28;20033;-88
2022/09/11 09:48:10;;;;;;;1.77;1.00;;;23.50;99.90;;;;;;5074152;28;20036;-84
2022/09/11 09:50:41;;;;;;;3.35;1.40;;;22.70;99.90;;;;;;5076883;28;20021;-85
2022/09/11 09:53:13;;;;;;;2.80;1.48;;;21.90;99.90;;;;;;5075704;28;20106;-86
2022/09/11 09:55:41;;;;;;;3.90;1.55;;;21.10;99.90;;;;;;5074981;28;20033;-83
2022/09/11 09:58:08;;;;;;;2.63;1.40;;;20.70;99.90;;;;;;5076364;28;20013;-87
2022/09/11 10:00:39;;;;;;;1.55;1.13;;;20.20;99.90;;;;;;5041593;28;20053;-88
2022/09/11 10:03:20;;;;;;;6.47;2.45;;;19.80;99.90;;;;;;5072870;28;20077;-86
2022/09/11 10:05:49;;;;;;;4.22;1.73;;;19.50;99.90;;;;;;5039921;28;20087;-87
2022/09/11 10:08:26;;;;;;;3.20;1.80;;;19.20;99.90;;;;;;5073696;28;20164;-82
2022/09/11 10:11:05;;;;;;;4.57;2.00;;;18.90;99.90;;;;;;5056229;28;20068;-84
2022/09/11 10:13:34;;;;;;;2.35;1.80;;;18.60;99.90;;;;;;5055965;28;20056;-86
2022/09/11 10:16:18;;;;;;;6.20;2.42;;;18.30;99.90;;;;;;5057976;28;20013;-82
2022/09/11 10:18:45;;;;;;;4.43;2.10;;;18.10;99.90;;;;;;5056789;28;20043;-84
2022/09/11 10:21:11;;;;;;;4.72;2.45;;;17.80;99.90;;;;;;5058195;28;20020;-85
2022/09/11 10:23:56;;;;;;;4.80;2.45;;;17.60;99.90;;;;;;5075037;28;20037;-83
2022/09/11 10:26:34;;;;;;;4.57;2.20;;;17.70;99.90;;;;;;5058976;28;20041;-85
2022/09/11 10:29:16;;;;;;;2.92;2.00;;;18.00;99.90;;;;;;5073948;28;20036;-83
2022/09/11 10:32:16;;;;;;;2.25;1.90;;;18.50;99.90;;;;;;5058157;28;20043;-85
2022/09/11 10:34:43;;;;;;;3.13;1.55;;;19.70;99.90;;;;;;5034284;28;20105;-82
2022/09/11 10:37:14;;;;;;;2.78;1.63;;;21.00;99.90;;;;;;5077142;28;20013;-80
2022/09/11 10:39:44;;;;;;;2.33;1.40;;;22.20;99.90;;;;;;5076563;28;20048;-82
2022/09/11 10:42:26;;;;;;;2.88;1.35;;;24.20;99.90;;;;;;5076727;28;20040;-83
2022/09/11 10:44:56;;;;;;;1.60;1.05;;;25.50;99.90;;;;;;5077236;28;20020;-82
2022/09/11 10:47:24;;;;;;;2.30;1.20;;;25.50;99.90;;;;;;5062407;28;20172;-84
2022/09/11 10:50:19;;;;;;;2.20;1.30;;;24.90;99.90;;;;;;5059056;28;20111;-82
2022/09/11 10:52:57;;;;;;;3.10;1.98;;;24.10;99.90;;;;;;5060487;28;20025;-83
2022/09/11 10:55:35;;;;;;;3.10;1.27;;;22.90;99.90;;;;;;5068450;28;20028;-84
2022/09/11 10:58:28;;;;;;;2.67;1.90;;;22.20;99.90;;;;;;5079466;28;20033;-82
2022/09/11 11:00:54;;;;;;;3.50;1.27;;;23.00;99.90;;;;;;5062456;28;20033;-86
2022/09/11 11:03:23;;;;;;;2.45;1.10;;;24.70;99.90;;;;;;5080271;28;20039;-85
2022/09/11 11:06:07;;;;;;;3.35;1.23;;;26.20;99.90;;;;;;5063127;28;20040;-85
2022/09/11 11:09:24;;;;;;;3.65;1.38;;;27.70;99.90;;;;;;5079976;28;20051;-83
2022/09/11 11:12:03;;;;;;;1.85;1.00;;;30.00;96.70;;;;;;4991385;28;20037;-83
2022/09/11 11:14:48;;;;;;;2.67;0.98;;;30.70;94.80;;;;;;5062342;28;20036;-85
2022/09/11 11:17:20;;;;;;;;;;;32.00;92.50;;;;;;5080596;28;20056;-85
2022/09/11 11:19:48;;;;;;;1.33;0.88;;;32.80;90.80;;;;;;5086271;22;20299;-83
2022/09/11 11:22:40;;;;;;;1.60;0.90;;;33.40;89.60;;;;;;5110301;28;20475;-82
2022/09/11 11:25:27;;;;;;;1.73;0.82;;;33.70;85.20;;;;;;5092704;28;20047;-84
2022/09/11 11:28:10;;;;;;;1.10;1.00;;;33.40;83.70;;;;;;5112321;28;20087;-82
2022/09/11 11:30:50;;;;;;;3.90;1.00;;;32.40;85.20;;;;;;5096735;28;20043;-82
2022/09/11 11:33:28;;;;;;;2.55;1.10;;;31.10;86.30;;;;;;5088336;28;20099;-81
2022/09/11 11:36:04;;;;;;;1.33;0.88;;;29.20;90.20;;;;;;5085581;28;20037;-82
2022/09/11 11:38:42;;;;;;;1.70;0.90;;;30.50;89.20;;;;;;5072411;28;20029;-82
2022/09/11 11:41:26;;;;;;;2.40;0.73;;;31.40;86.50;;;;;;5063882;28;20028;-82
2022/09/11 11:43:54;;;;;;;2.63;0.70;;;31.50;85.50;;;;;;5051194;28;20523;-82
2022/09/11 11:46:28;;;;;;;1.40;0.65;;;31.30;84.70;;;;;;5070461;28;20017;-81
2022/09/11 11:49:15;;;;;;;;;;;31.30;84.80;;;;;;5068309;28;20037;-84
2022/09/11 11:51:51;;;;;;;0.98;0.82;;;31.30;83.80;;;;;;5066673;28;20387;-82
2022/09/11 11:54:24;;;;;;;0.90;0.70;;;30.80;83.60;;;;;;5067198;28;20148;-83
2022/09/11 11:56:53;;;;;;;1.08;0.70;;;30.70;83.50;;;;;;5067933;28;20131;-82
2022/09/11 11:59:43;;;;;;;2.22;0.80;;;30.00;84.60;;;;;;5076266;28;20032;-82
2022/09/11 12:02:09;;;;;;;1.60;0.70;;;29.80;86.10;;;;;;5067994;28;20021;-82
2022/09/11 12:04:47;;;;;;;0.93;0.50;;;31.30;83.60;;;;;;5077265;28;20021;-82
2022/09/11 12:07:25;;;;;;;0.85;0.50;;;32.10;80.60;;;;;;5078717;28;20060;-82
2022/09/11 12:09:53;;;;;;;1.58;0.57;;;32.70;79.50;;;;;;5082339;28;20043;-81
2022/09/11 12:12:21;;;;;;;1.23;0.65;;;31.70;79.40;;;;;;5082529;28;20032;-82
2022/09/11 12:14:53;;;;;;;0.55;0.32;;;30.20;80.90;;;;;;5067970;28;20029;-81
2022/09/11 12:17:32;;;;;;;0.68;0.47;;;28.90;82.50;;;;;;5068119;28;20025;-82
2022/09/11 12:20:09;;;;;;;1.95;0.52;;;27.10;85.60;;;;;;5069042;28;20021;-81
2022/09/11 12:22:47;;;;;;;2.90;0.60;;;26.20;88.40;;;;;;5075070;28;20081;-82
2022/09/11 12:25:22;;;;;;;1.42;0.57;;;25.50;90.50;;;;;;5050290;28;20025;-82
2022/09/11 12:27:52;;;;;;;1.77;0.90;;;24.90;91.30;;;;;;5062722;28;20622;-81
2022/09/11 12:30:19;;;;;;;3.10;0.70;;;24.50;92.40;;;;;;5084008;28;20020;-80
2022/09/11 12:32:45;;;;;;;2.53;0.60;;;24.20;92.80;;;;;;5084620;28;20020;-81
2022/09/11 12:35:23;;;;;;;1.30;0.60;;;23.90;93.60;;;;;;5080648;28;20118;-82
2022/09/11 12:38:26;;;;;;;1.00;0.70;;;24.40;93.50;;;;;;5073373;28;20032;-82
2022/09/11 12:41:06;;;;;;;1.25;0.70;;;25.30;93.10;;;;;;5040926;28;20105;-81
2022/09/11 12:43:34;;;;;;;2.40;0.95;;;26.20;92.10;;;;;;5085257;28;20262;-81
2022/09/11 12:46:02;;;;;;;1.38;0.80;;;27.10;91.30;;;;;;5081847;28;20017;-81
2022/09/11 12:48:46;;;;;;;1.40;0.73;;;27.50;90.20;;;;;;5071085;28;20025;-81
2022/09/11 12:51:21;;;;;;;0.75;0.60;;;28.40;88.70;;;;;;5069636;28;20017;-81
2022/09/11 12:53:50;;;;;;;2.95;0.50;;;29.50;86.20;;;;;;5077572;28;20033;-82
2022/09/11 12:56:22;;;;;;;0.60;0.50;;;29.90;82.70;;;;;;5070527;28;20047;-80
2022/09/11 12:58:58;;;;;;;0.40;0.30;;;30.30;82.20;;;;;;5075574;28;20048;-81
2022/09/11 13:01:31;;;;;;;0.52;0.47;;;30.40;81.30;;;;;;5068093;28;20051;-81
2022/09/11 13:03:59;;;;;;;1.23;0.40;;;29.70;81.50;;;;;;5068931;28;20020;-81
2022/09/11 13:06:44;;;;;;;0.73;0.50;;;28.90;83.00;;;;;;5086064;28;20035;-81
2022/09/11 13:09:27;;;;;;;;;;;28.90;83.70;;;;;;5083131;28;20064;-82
2022/09/11 13:12:22;;;;;;;1.42;0.60;;;29.10;83.90;;;;;;5084957;28;19905;-80
2022/09/11 13:14:53;;;;;;;0.60;0.60;;;28.60;85.60;;;;;;5070181;28;20028;-80
2022/09/11 13:17:33;;;;;;;0.40;0.40;;;29.40;84.40;;;;;;5086648;28;20020;-79